Time;durP1;ratioP1;P1;durP2;ratioP2;P2;SDS_P1;SDS_P2;PMS_P1;PMS_P2;Temp;Humidity;BMP_temperature;BMP_pressure;BME280_temperature;BME280_humidity;BME280_pressure;Samples;Min_cycle;Max_cycle;Signal;HPM_P1;HPM_P2
2022/03/15 00:00:52;;;;;;;39.30;26.10;;;;;;;5.24;46.25;101755.70;105849;1279;22481;-85
2022/03/15 00:03:19;;;;;;;40.60;27.20;;;;;;;5.29;46.21;101761.63;105872;1279;24236;-81
2022/03/15 00:05:46;;;;;;;37.00;24.60;;;;;;;5.27;46.08;101763.66;105717;1280;23061;-82
2022/03/15 00:08:13;;;;;;;40.60;24.70;;;;;;;5.21;46.15;101755.42;105437;1284;25214;-83
2022/03/15 00:10:40;;;;;;;34.70;24.30;;;;;;;5.17;46.20;101747.27;105647;1279;25595;-82
2022/03/15 00:13:07;;;;;;;39.50;24.80;;;;;;;5.13;46.04;101753.22;105688;1279;25320;-80
2022/03/15 00:15:36;;;;;;;41.50;26.90;;;;;;;5.13;46.25;101753.95;105471;1279;22560;-82
2022/03/15 00:18:03;;;;;;;39.30;26.30;;;;;;;5.10;46.15;101753.14;105553;1279;22993;-83
2022/03/15 00:20:30;;;;;;;39.80;27.70;;;;;;;5.04;46.14;101752.20;106510;1281;26169;-83
2022/03/15 00:22:59;;;;;;;37.50;25.90;;;;;;;5.01;46.25;101747.21;106445;1281;22542;-83
2022/03/15 00:25:27;;;;;;;36.90;24.70;;;;;;;5.01;46.34;101751.23;106492;1280;22572;-85
2022/03/15 00:27:55;;;;;;;43.00;26.30;;;;;;;5.03;46.30;101751.14;107399;1279;22708;-84
2022/03/15 00:30:25;;;;;;;39.90;27.70;;;;;;;5.05;46.31;101748.58;106556;1280;23220;-83
2022/03/15 00:32:54;;;;;;;38.60;26.30;;;;;;;5.03;46.23;101747.98;105815;1280;23948;-83
2022/03/15 00:35:25;;;;;;;36.90;24.50;;;;;;;5.00;46.38;101745.95;105780;1279;24246;-81
2022/03/15 00:37:54;;;;;;;39.70;25.80;;;;;;;5.02;46.32;101744.11;105683;1279;22541;-80
2022/03/15 00:40:24;;;;;;;40.40;26.80;;;;;;;4.98;46.41;101737.18;105207;1284;22543;-78
2022/03/15 00:42:52;;;;;;;44.30;28.50;;;;;;;4.93;46.39;101733.87;105049;1284;25553;-81
2022/03/15 00:45:28;;;;;;;36.90;25.90;;;;;;;4.88;46.68;101729.65;105063;1285;25275;-78
2022/03/15 00:47:58;;;;;;;44.00;29.20;;;;;;;4.89;46.79;101728.64;105125;1284;25273;-80
2022/03/15 00:50:27;;;;;;;45.10;27.90;;;;;;;4.89;47.20;101728.48;104688;1285;25361;-81
2022/03/15 00:52:56;;;;;;;52.80;30.20;;;;;;;4.88;47.50;101729.45;105181;1285;24253;-80
2022/03/15 00:55:23;;;;;;;44.00;29.10;;;;;;;4.82;47.54;101722.45;105162;1285;22564;-82
2022/03/15 00:57:50;;;;;;;40.80;28.00;;;;;;;4.70;47.60;101723.08;105425;1279;22537;-81
2022/03/15 01:00:18;;;;;;;44.10;28.60;;;;;;;4.65;47.89;101727.08;105622;1281;22531;-81
2022/03/15 01:02:45;;;;;;;39.10;27.60;;;;;;;4.62;47.87;101724.36;105264;1284;22500;-82
2022/03/15 01:05:12;;;;;;;39.00;26.60;;;;;;;4.59;47.82;101725.80;104615;1288;23755;-81
2022/03/15 01:07:39;;;;;;;39.50;26.40;;;;;;;4.53;47.67;101730.33;104786;1288;24329;-82
2022/03/15 01:10:07;;;;;;;38.50;27.10;;;;;;;4.49;47.61;101724.05;104625;1288;22538;-82
2022/03/15 01:12:34;;;;;;;38.70;26.10;;;;;;;4.49;47.55;101719.85;104514;1288;22561;-83
2022/03/15 01:15:07;;;;;;;41.30;27.00;;;;;;;4.48;47.59;101724.71;104796;1288;22544;-83
2022/03/15 01:17:36;;;;;;;42.10;27.20;;;;;;;4.48;47.56;101720.89;104716;1288;22570;-78
2022/03/15 01:20:06;;;;;;;42.10;27.30;;;;;;;4.41;47.43;101720.45;104687;1289;25358;-84
2022/03/15 01:22:35;;;;;;;40.90;25.60;;;;;;;4.37;47.28;101720.13;104415;1293;26534;-81
2022/03/15 01:25:03;;;;;;;43.10;28.30;;;;;;;4.29;47.31;101718.95;104770;1287;22536;-80
2022/03/15 01:27:30;;;;;;;43.80;27.50;;;;;;;4.29;47.52;101716.32;104645;1287;22553;-81
2022/03/15 01:30:00;;;;;;;39.90;25.60;;;;;;;4.29;47.51;101713.71;104821;1287;23231;-81
2022/03/15 01:32:27;;;;;;;39.50;27.40;;;;;;;4.29;47.34;101714.05;104779;1287;25270;-84
2022/03/15 01:34:54;;;;;;;44.00;27.30;;;;;;;4.25;47.41;101716.52;104266;1288;24350;-79
2022/03/15 01:37:24;;;;;;;41.00;26.50;;;;;;;4.17;47.41;101711.69;104531;1290;22544;-81
2022/03/15 01:39:51;;;;;;;40.20;28.60;;;;;;;4.12;47.62;101712.20;104747;1288;25567;-84
2022/03/15 01:42:17;;;;;;;42.90;27.00;;;;;;;4.17;47.74;101715.20;105458;1281;25536;-82
2022/03/15 01:44:46;;;;;;;41.60;26.60;;;;;;;4.19;47.62;101715.09;105142;1284;22693;-81
2022/03/15 01:47:13;;;;;;;46.10;27.70;;;;;;;4.21;47.84;101717.60;105312;1281;22564;-82
2022/03/15 01:49:41;;;;;;;37.90;26.20;;;;;;;4.23;47.71;101717.48;105236;1281;22803;-87
2022/03/15 01:52:13;;;;;;;41.10;26.20;;;;;;;4.20;47.63;101715.64;105580;1281;22565;-82
2022/03/15 01:54:40;;;;;;;40.40;26.80;;;;;;;4.20;47.85;101712.52;105359;1281;22541;-82
2022/03/15 01:57:09;;;;;;;46.60;27.80;;;;;;;4.23;47.78;101707.91;105337;1281;25380;-86
2022/03/15 01:59:37;;;;;;;48.20;29.10;;;;;;;4.26;47.89;101708.02;105435;1282;22619;-84
2022/03/15 02:02:05;;;;;;;37.10;25.40;;;;;;;4.25;47.88;101712.16;105259;1281;22679;-82
2022/03/15 02:04:33;;;;;;;40.00;26.60;;;;;;;4.23;47.70;101715.76;105340;1284;25253;-82
2022/03/15 02:07:12;;;;;;;42.10;28.20;;;;;;;4.17;47.73;101718.34;105381;1281;24333;-84
2022/03/15 02:09:41;;;;;;;47.90;28.20;;;;;;;4.07;47.78;101711.84;105530;1281;24372;-86
2022/03/15 02:12:09;;;;;;;45.40;29.40;;;;;;;4.03;48.02;101714.98;105609;1281;24319;-85
2022/03/15 02:14:37;;;;;;;41.80;28.00;;;;;;;3.99;47.99;101714.50;105360;1283;25257;-83
2022/03/15 02:17:06;;;;;;;45.60;28.90;;;;;;;3.94;48.19;101711.19;105265;1281;25326;-80
2022/03/15 02:19:34;;;;;;;47.70;29.40;;;;;;;3.93;48.07;101704.48;104769;1287;22554;-82
2022/03/15 02:22:01;;;;;;;41.10;26.90;;;;;;;3.82;48.06;101705.11;104991;1288;22589;-80
2022/03/15 02:24:28;;;;;;;40.70;28.80;;;;;;;3.71;48.36;101706.09;104803;1285;25289;-79
2022/03/15 02:26:55;;;;;;;47.40;28.40;;;;;;;3.65;48.42;101703.22;104813;1285;22529;-81
2022/03/15 02:29:22;;;;;;;45.70;28.90;;;;;;;3.56;48.53;101703.91;104869;1286;22700;-82
2022/03/15 02:31:50;;;;;;;44.60;27.20;;;;;;;3.51;48.70;101700.56;104896;1287;25269;-82
2022/03/15 02:34:21;;;;;;;43.30;29.50;;;;;;;3.51;48.77;101701.95;105080;1284;25411;-79
2022/03/15 02:36:48;;;;;;;42.80;27.40;;;;;;;3.54;48.92;101701.55;105068;1285;22543;-82
2022/03/15 02:39:15;;;;;;;42.00;27.70;;;;;;;3.53;48.76;101704.98;105530;1281;22553;-82
2022/03/15 02:41:42;;;;;;;44.60;28.00;;;;;;;3.48;48.70;101703.94;105229;1281;25260;-87
2022/03/15 02:44:09;;;;;;;42.70;28.10;;;;;;;3.51;48.88;101705.26;105368;1281;23216;-87
2022/03/15 02:46:39;;;;;;;41.00;26.80;;;;;;;3.55;48.80;101706.48;105480;1281;22575;-85
2022/03/15 02:49:07;;;;;;;42.90;26.80;;;;;;;3.54;48.81;101711.99;105258;1282;24856;-82
2022/03/15 02:51:35;;;;;;;43.70;28.30;;;;;;;3.47;48.79;101706.69;105138;1284;22757;-84
2022/03/15 02:54:07;;;;;;;45.80;28.20;;;;;;;3.49;48.89;101708.48;105154;1287;22634;-83
2022/03/15 02:56:42;;;;;;;41.80;27.90;;;;;;;3.52;48.76;101710.89;105116;1287;24405;-77
2022/03/15 02:59:13;;;;;;;43.70;28.40;;;;;;;3.46;48.78;101710.99;105057;1287;22551;-78
2022/03/15 03:01:45;;;;;;;44.30;28.50;;;;;;;3.37;48.89;101718.64;105127;1285;24421;-81
2022/03/15 03:04:15;;;;;;;38.00;25.60;;;;;;;3.27;49.10;101719.98;105114;1285;25216;-80
2022/03/15 03:06:43;;;;;;;43.30;28.60;;;;;;;3.23;49.07;101712.84;105030;1288;22560;-81
2022/03/15 03:09:11;;;;;;;37.50;25.20;;;;;;;3.26;49.16;101709.64;105141;1281;24281;-83
2022/03/15 03:11:39;;;;;;;51.00;30.00;;;;;;;3.29;49.17;101708.19;104695;1288;25275;-82
2022/03/15 03:14:12;;;;;;;46.70;29.20;;;;;;;3.31;49.15;101717.02;104803;1287;23973;-78
2022/03/15 03:16:40;;;;;;;42.70;28.30;;;;;;;3.36;49.21;101713.02;104725;1288;25383;-79
2022/03/15 03:19:08;;;;;;;41.50;27.10;;;;;;;3.39;49.13;101715.58;104835;1288;24584;-80
2022/03/15 03:21:36;;;;;;;40.10;27.00;;;;;;;3.40;49.02;101718.77;104965;1287;22547;-77
2022/03/15 03:24:08;;;;;;;48.50;27.30;;;;;;;3.40;49.10;101721.73;104909;1288;23469;-79
2022/03/15 03:26:38;;;;;;;44.40;28.00;;;;;;;3.43;49.16;101726.52;104898;1288;24290;-81
2022/03/15 03:29:09;;;;;;;43.90;28.30;;;;;;;3.42;49.05;101730.88;105003;1281;22784;-82
2022/03/15 03:31:38;;;;;;;42.50;27.40;;;;;;;3.31;48.94;101726.59;105043;1287;25258;-81
2022/03/15 03:34:06;;;;;;;43.60;26.40;;;;;;;3.17;48.97;101728.09;105033;1287;23005;-79
2022/03/15 03:36:34;;;;;;;41.80;27.20;;;;;;;3.12;49.17;101722.11;104587;1290;25379;-80
2022/03/15 03:39:21;;;;;;;42.30;27.00;;;;;;;3.05;49.42;101724.77;104659;1291;25391;-83
2022/03/15 03:41:49;;;;;;;41.60;28.20;;;;;;;3.06;49.50;101718.23;104895;1293;25395;-80
2022/03/15 03:44:16;;;;;;;44.40;27.50;;;;;;;3.08;49.48;101715.52;105308;1290;25426;-82
2022/03/15 03:46:43;;;;;;;42.70;27.80;;;;;;;3.11;49.48;101711.26;104402;1294;22586;-83
2022/03/15 03:49:10;;;;;;;41.20;27.00;;;;;;;3.16;49.47;101712.37;104845;1290;24307;-85
2022/03/15 03:51:37;;;;;;;47.90;28.70;;;;;;;3.17;49.22;101715.19;104883;1290;24052;-84
2022/03/15 03:54:04;;;;;;;38.90;25.40;;;;;;;3.17;49.09;101720.94;104782;1288;25322;-82
2022/03/15 03:56:33;;;;;;;41.60;27.40;;;;;;;3.13;49.24;101720.24;104965;1287;25437;-82
2022/03/15 03:59:00;;;;;;;40.40;26.20;;;;;;;3.13;49.29;101715.20;105054;1287;22806;-82
2022/03/15 04:01:27;;;;;;;42.30;28.30;;;;;;;3.08;49.17;101713.41;105091;1286;26531;-82
2022/03/15 04:03:54;;;;;;;51.40;28.70;;;;;;;3.04;49.33;101716.23;104856;1287;23464;-79
2022/03/15 04:06:21;;;;;;;41.30;26.80;;;;;;;3.02;49.36;101715.60;105095;1287;22777;-82
2022/03/15 04:08:48;;;;;;;42.20;28.00;;;;;;;2.95;49.41;101713.03;104435;1291;24325;-81
2022/03/15 04:11:16;;;;;;;49.80;29.30;;;;;;;2.87;49.45;101712.52;103954;1297;24114;-82
2022/03/15 04:13:44;;;;;;;43.60;27.80;;;;;;;2.87;49.70;101712.87;103880;1296;24371;-84
2022/03/15 04:16:11;;;;;;;39.20;26.40;;;;;;;2.88;49.68;101711.34;104070;1296;25387;-82
2022/03/15 04:18:40;;;;;;;49.70;28.70;;;;;;;2.76;49.81;101710.49;103590;1300;22605;-81
2022/03/15 04:21:07;;;;;;;43.90;27.30;;;;;;;2.72;49.89;101714.83;103627;1300;22589;-83
2022/03/15 04:23:34;;;;;;;43.80;28.80;;;;;;;2.69;50.11;101715.38;103219;1306;25371;-83
2022/03/15 04:26:02;;;;;;;42.50;28.20;;;;;;;2.75;50.14;101716.17;102944;1308;23609;-84
2022/03/15 04:28:29;;;;;;;45.70;29.70;;;;;;;2.78;49.95;101718.23;103461;1303;22579;-81
2022/03/15 04:30:56;;;;;;;46.80;27.80;;;;;;;2.74;49.85;101714.73;103680;1298;25643;-82
2022/03/15 04:33:23;;;;;;;40.90;26.40;;;;;;;2.64;49.87;101712.58;103908;1294;25331;-83
2022/03/15 04:35:49;;;;;;;44.50;27.60;;;;;;;2.60;49.89;101712.41;103958;1294;25396;-81
2022/03/15 04:38:16;;;;;;;43.10;27.40;;;;;;;2.58;49.95;101706.74;103854;1297;23548;-85
2022/03/15 04:40:45;;;;;;;56.10;26.90;;;;;;;2.63;50.13;101707.64;103638;1299;22589;-84
2022/03/15 04:43:12;;;;;;;42.40;26.30;;;;;;;2.64;49.97;101705.44;103938;1296;23655;-85
2022/03/15 04:45:40;;;;;;;42.70;27.50;;;;;;;2.66;49.83;101704.67;104663;1290;24405;-86
2022/03/15 04:48:07;;;;;;;36.50;24.90;;;;;;;2.68;49.79;101707.68;104583;1290;24263;-83
2022/03/15 04:50:34;;;;;;;45.10;27.70;;;;;;;2.64;49.63;101708.57;104717;1290;24766;-82
2022/03/15 04:53:01;;;;;;;43.90;28.50;;;;;;;2.58;49.60;101707.41;104839;1288;23846;-81
2022/03/15 04:55:28;;;;;;;53.90;30.70;;;;;;;2.59;49.83;101708.87;104764;1290;22624;-81
2022/03/15 04:57:55;;;;;;;35.70;22.80;;;;;;;2.61;49.89;101709.50;105562;1281;24286;-79
2022/03/15 05:00:22;;;;;;;40.80;27.00;;;;;;;2.64;49.72;101705.27;105664;1281;24409;-79
2022/03/15 05:02:50;;;;;;;42.80;28.10;;;;;;;2.67;49.67;101704.85;105678;1281;25260;-86
2022/03/15 05:05:17;;;;;;;39.70;28.20;;;;;;;2.67;49.63;101702.42;105596;1281;24326;-78
2022/03/15 05:07:46;;;;;;;43.80;29.00;;;;;;;2.69;49.66;101703.90;107146;1274;22555;-93
2022/03/15 05:13:01;;;;;;;39.70;25.60;;;;;;;2.77;49.58;101703.05;107295;1284;24391;-82
2022/03/15 05:15:28;;;;;;;43.40;28.70;;;;;;;2.84;49.54;101708.40;104908;1287;25308;-80
2022/03/15 05:17:55;;;;;;;38.30;24.00;;;;;;;2.84;49.34;101705.27;104909;1287;22718;-80
2022/03/15 05:20:23;;;;;;;37.60;24.90;;;;;;;2.88;49.41;101713.42;105141;1287;24267;-88
2022/03/15 05:22:57;;;;;;;34.90;24.40;;;;;;;2.93;49.36;101706.86;105881;1272;22522;31
2022/03/15 05:25:29;;;;;;;40.60;25.80;;;;;;;2.88;49.18;101694.29;106993;1271;305276;-88
2022/03/15 05:27:57;;;;;;;36.20;24.80;;;;;;;2.92;49.23;101700.04;105587;1281;22567;-90
2022/03/15 05:30:24;;;;;;;35.20;22.80;;;;;;;2.93;49.19;101695.73;105615;1282;24866;-89
2022/03/15 05:32:51;;;;;;;37.00;24.20;;;;;;;2.94;49.14;101695.60;105265;1282;22567;-86
2022/03/15 05:35:18;;;;;;;41.40;26.30;;;;;;;2.95;49.14;101696.35;105249;1284;23997;-82
2022/03/15 05:37:45;;;;;;;40.40;26.20;;;;;;;2.99;49.27;101696.65;105245;1282;24404;-84
2022/03/15 05:40:12;;;;;;;42.80;25.70;;;;;;;3.11;49.38;101700.15;105489;1281;23244;-87
2022/03/15 05:42:39;;;;;;;43.60;26.10;;;;;;;3.23;49.27;101702.20;105464;1281;22547;-79
2022/03/15 05:45:06;;;;;;;46.40;25.90;;;;;;;3.28;49.04;101707.45;105345;1281;22581;-80
2022/03/15 05:47:34;;;;;;;36.90;24.50;;;;;;;3.28;48.83;101708.86;105353;1281;24320;-80
2022/03/15 05:50:03;;;;;;;44.20;28.70;;;;;;;3.29;48.90;101715.19;105286;1282;25251;-83
2022/03/15 05:52:30;;;;;;;47.00;30.80;;;;;;;3.33;48.89;101717.79;105554;1281;22668;-84
2022/03/15 05:54:57;;;;;;;36.30;24.20;;;;;;;3.33;48.76;101703.48;105299;1282;25394;-80
2022/03/15 05:57:24;;;;;;;46.90;27.60;;;;;;;3.39;48.76;101702.50;105288;1281;23937;-82
2022/03/15 05:59:51;;;;;;;41.70;26.40;;;;;;;3.40;48.74;101698.91;105170;1281;25382;-80
2022/03/15 06:02:18;;;;;;;37.10;23.60;;;;;;;3.45;48.74;101698.91;104495;1287;25356;-80
2022/03/15 06:04:45;;;;;;;38.80;24.00;;;;;;;3.52;48.64;101699.21;104406;1287;24398;-80
2022/03/15 06:07:12;;;;;;;34.50;22.40;;;;;;;3.57;48.60;101704.83;104609;1287;24514;-81
2022/03/15 06:09:40;;;;;;;46.30;26.50;;;;;;;3.63;48.64;101712.38;104657;1288;22531;-82
2022/03/15 06:12:08;;;;;;;51.30;31.10;;;;;;;3.66;48.57;101714.08;104749;1288;22549;-79
2022/03/15 06:14:35;;;;;;;49.80;29.20;;;;;;;3.65;48.53;101713.52;104708;1287;25672;-81
2022/03/15 06:17:04;;;;;;;49.70;31.20;;;;;;;3.66;48.43;101718.42;104768;1287;22745;-86
2022/03/15 06:19:31;;;;;;;49.60;30.50;;;;;;;3.67;48.55;101719.84;105445;1287;24277;-88
2022/03/15 06:21:58;;;;;;;45.90;27.90;;;;;;;3.70;48.57;101722.77;105501;1281;24251;-88
2022/03/15 06:24:26;;;;;;;42.90;26.70;;;;;;;3.76;48.67;101728.75;105661;1281;22634;-88
2022/03/15 06:26:54;;;;;;;52.00;29.10;;;;;;;3.80;48.64;101731.36;105555;1281;24398;-88
2022/03/15 06:29:21;;;;;;;44.10;25.90;;;;;;;3.85;48.59;101735.72;105237;1287;22603;-85
2022/03/15 06:31:48;;;;;;;47.90;28.80;;;;;;;3.89;48.70;101737.27;105395;1287;25137;-87
2022/03/15 06:34:35;;;;;;;36.90;22.40;;;;;;;3.97;48.81;101730.98;105303;1287;22540;-87
2022/03/15 06:37:02;;;;;;;37.00;24.70;;;;;;;4.11;49.29;101731.89;106069;1287;26621;-84
2022/03/15 06:39:29;;;;;;;35.20;24.60;;;;;;;4.22;49.09;101727.95;106501;1287;22784;-89
2022/03/15 06:41:57;;;;;;;33.20;22.70;;;;;;;4.36;49.17;101728.62;106522;1287;23769;-87
2022/03/15 06:44:24;;;;;;;28.60;19.20;;;;;;;4.45;49.05;101730.35;106149;1290;22954;-87
2022/03/15 06:46:51;;;;;;;29.10;18.80;;;;;;;4.49;49.18;101728.06;107556;1284;22606;-88
2022/03/15 06:49:18;;;;;;;40.30;24.50;;;;;;;4.53;49.49;101725.61;107744;1284;22724;-87
2022/03/15 06:51:44;;;;;;;34.70;21.40;;;;;;;4.65;49.66;101733.70;107219;1284;22589;-89
2022/03/15 06:54:16;;;;;;;34.40;22.30;;;;;;;4.74;49.72;101732.64;108454;1284;22620;-88
2022/03/15 06:56:43;;;;;;;34.60;22.60;;;;;;;4.85;50.14;101730.92;108314;1284;22637;-90
2022/03/15 06:59:10;;;;;;;26.60;18.00;;;;;;;4.97;50.28;101737.47;106042;1284;23002;-89
2022/03/15 07:01:37;;;;;;;34.40;22.60;;;;;;;5.06;50.45;101735.50;106127;1285;25373;-90
2022/03/15 07:04:04;;;;;;;31.70;22.10;;;;;;;5.16;50.62;101739.19;106108;1281;25447;-90
2022/03/15 07:06:31;;;;;;;34.90;21.30;;;;;;;5.28;50.82;101739.44;105724;1281;23997;-89
2022/03/15 07:08:58;;;;;;;33.40;21.80;;;;;;;5.36;51.13;101739.00;105913;1282;24397;-90
2022/03/15 07:11:25;;;;;;;31.20;21.00;;;;;;;5.45;51.52;101740.34;106046;1282;22570;-90
2022/03/15 07:13:52;;;;;;;29.90;21.30;;;;;;;5.51;51.44;101735.48;106132;1281;22508;-89
2022/03/15 07:16:20;;;;;;;26.40;18.90;;;;;;;5.55;51.70;101732.29;105932;1282;22541;-90
2022/03/15 07:18:47;;;;;;;31.60;21.70;;;;;;;5.60;51.88;101736.63;105598;1284;25269;-90
2022/03/15 07:21:14;;;;;;;29.20;18.90;;;;;;;5.65;51.85;101741.16;105810;1281;23962;-88
2022/03/15 07:23:43;;;;;;;27.70;20.20;;;;;;;5.67;52.09;101742.48;105939;1281;22866;-90
2022/03/15 07:26:10;;;;;;;23.40;17.30;;;;;;;5.69;52.13;101746.53;106337;1281;22715;-90
2022/03/15 07:28:37;;;;;;;37.00;20.20;;;;;;;5.73;52.31;101744.21;106056;1281;24467;-90
2022/03/15 07:31:05;;;;;;;26.10;17.00;;;;;;;5.82;52.40;101750.44;106134;1281;22638;-90
2022/03/15 07:33:32;;;;;;;28.80;20.30;;;;;;;5.86;52.23;101756.02;106368;1281;24208;-89
2022/03/15 07:36:01;;;;;;;29.40;20.60;;;;;;;5.88;52.37;101756.94;107059;1281;22580;-88
2022/03/15 07:38:28;;;;;;;31.90;20.80;;;;;;;5.89;52.44;101752.27;107194;1284;22908;-88
2022/03/15 07:40:57;;;;;;;31.90;19.40;;;;;;;5.97;52.61;101746.02;107294;1285;22592;-90
2022/03/15 07:43:24;;;;;;;29.70;19.90;;;;;;;6.05;52.54;101742.98;107669;1282;22552;-89
2022/03/15 07:45:51;;;;;;;30.20;19.20;;;;;;;6.11;52.59;101752.45;107777;1281;22537;-88
2022/03/15 07:48:18;;;;;;;30.10;21.30;;;;;;;6.19;52.73;101751.80;108422;1281;22509;-88
2022/03/15 07:50:46;;;;;;;28.30;19.70;;;;;;;6.23;52.50;101753.70;107384;1281;22688;-89
2022/03/15 07:53:13;;;;;;;24.60;19.10;;;;;;;6.30;52.52;101753.21;107310;1281;25383;-88
2022/03/15 07:55:40;;;;;;;27.50;20.60;;;;;;;6.41;52.62;101756.33;106477;1281;25319;-89
2022/03/15 07:58:08;;;;;;;29.10;15.20;;;;;;;6.50;52.39;101758.71;105819;1281;24325;-89
2022/03/15 08:00:35;;;;;;;30.40;20.80;;;;;;;6.53;52.54;101760.21;105722;1282;22709;-91
2022/03/15 08:03:02;;;;;;;26.20;17.90;;;;;;;6.56;52.44;101760.08;105790;1281;22570;-89
2022/03/15 08:05:29;;;;;;;29.10;21.60;;;;;;;6.58;52.48;101759.64;105741;1281;22548;-89
2022/03/15 08:07:56;;;;;;;25.90;19.00;;;;;;;6.55;52.51;101758.31;105873;1282;26725;-90
2022/03/15 08:10:23;;;;;;;21.90;16.20;;;;;;;6.53;52.71;101765.60;105746;1281;24245;-88
2022/03/15 08:12:50;;;;;;;31.10;20.40;;;;;;;6.53;52.82;101767.89;105453;1281;25422;-88
2022/03/15 08:15:16;;;;;;;28.60;18.80;;;;;;;6.60;53.21;101760.56;105520;1281;25384;-88
2022/03/15 08:17:44;;;;;;;28.40;20.30;;;;;;;6.68;53.10;101752.56;105601;1281;22606;-88
2022/03/15 08:20:15;;;;;;;30.00;19.50;;;;;;;6.80;52.89;101753.25;105505;1281;24310;-87
2022/03/15 08:22:42;;;;;;;24.20;18.60;;;;;;;6.91;52.80;101755.83;105389;1282;22692;-89
2022/03/15 08:25:09;;;;;;;28.20;20.10;;;;;;;7.04;52.71;101760.55;105483;1281;25466;-87
2022/03/15 08:27:36;;;;;;;25.60;15.80;;;;;;;7.18;52.54;101767.95;105691;1281;22593;-90
2022/03/15 08:30:04;;;;;;;29.40;19.00;;;;;;;7.17;52.63;101766.02;105474;1281;22537;-88
2022/03/15 08:32:31;;;;;;;29.20;20.30;;;;;;;7.21;52.52;101764.89;105561;1281;22573;-88
2022/03/15 08:34:58;;;;;;;23.50;17.40;;;;;;;7.30;52.66;101758.30;105546;1281;22573;-88
2022/03/15 08:37:25;;;;;;;26.10;19.50;;;;;;;7.43;52.63;101750.04;105422;1282;22564;-88
2022/03/15 08:39:52;;;;;;;24.80;17.80;;;;;;;7.54;52.54;101749.60;105483;1282;23937;-89
2022/03/15 08:42:23;;;;;;;30.30;19.60;;;;;;;7.61;52.48;101750.13;105409;1281;25315;-89
2022/03/15 08:44:50;;;;;;;26.80;19.40;;;;;;;7.70;52.53;101747.38;105452;1281;22541;-90
2022/03/15 08:47:16;;;;;;;29.20;20.40;;;;;;;7.74;52.47;101742.73;105496;1281;22733;-87
2022/03/15 08:49:43;;;;;;;26.40;19.70;;;;;;;7.83;52.39;101735.58;105699;1281;23233;-89
2022/03/15 08:52:11;;;;;;;26.80;21.30;;;;;;;7.85;52.34;101732.47;106156;1281;23939;-88
2022/03/15 08:54:38;;;;;;;24.90;18.80;;;;;;;7.97;52.48;101731.52;105970;1281;22581;-88
2022/03/15 08:57:05;;;;;;;26.60;20.10;;;;;;;8.06;52.44;101723.48;105280;1282;22714;-88
2022/03/15 08:59:32;;;;;;;27.10;18.10;;;;;;;8.17;52.46;101720.92;105389;1281;24396;-88
2022/03/15 09:02:01;;;;;;;25.30;19.10;;;;;;;8.20;52.31;101726.23;105765;1281;22559;-88
2022/03/15 09:04:28;;;;;;;30.30;20.50;;;;;;;8.28;52.40;101720.43;105447;1282;22764;-88
2022/03/15 09:06:55;;;;;;;29.40;19.60;;;;;;;8.34;52.19;101718.48;105611;1281;22534;-88
2022/03/15 09:09:24;;;;;;;32.30;20.70;;;;;;;8.45;52.28;101722.56;105349;1281;22554;-88
2022/03/15 09:11:51;;;;;;;32.20;18.80;;;;;;;8.55;52.47;101718.39;105442;1281;25326;-87
2022/03/15 09:14:18;;;;;;;31.50;19.70;;;;;;;8.61;52.25;101720.48;105326;1281;22574;-89
2022/03/15 09:16:46;;;;;;;31.00;20.20;;;;;;;8.67;52.42;101724.10;105524;1281;24329;-88
2022/03/15 09:19:13;;;;;;;21.10;15.60;;;;;;;8.72;52.60;101725.24;105305;1282;25393;-90
2022/03/15 09:21:40;;;;;;;26.00;17.80;;;;;;;8.78;52.60;101723.45;106183;1281;23371;-88
2022/03/15 09:24:08;;;;;;;22.60;17.00;;;;;;;8.82;52.58;101723.15;106106;1281;25281;-88
2022/03/15 09:26:36;;;;;;;25.70;17.80;;;;;;;8.89;52.65;101720.48;105913;1281;22581;-89
2022/03/15 09:29:04;;;;;;;21.20;17.50;;;;;;;9.06;52.65;101719.91;105892;1282;24230;-89
2022/03/15 09:31:31;;;;;;;22.50;17.70;;;;;;;9.19;52.61;101714.88;106175;1281;22545;-89
2022/03/15 09:33:58;;;;;;;23.20;17.30;;;;;;;9.27;52.40;101717.84;106132;1281;25378;-87
2022/03/15 09:36:25;;;;;;;20.00;16.60;;;;;;;9.27;52.40;101716.77;106006;1281;22548;-88
2022/03/15 09:38:52;;;;;;;20.10;16.00;;;;;;;9.33;52.54;101713.36;105909;1282;23178;-90
2022/03/15 09:41:18;;;;;;;21.40;17.30;;;;;;;9.27;52.72;101716.08;105824;1281;23015;-89
2022/03/15 09:43:47;;;;;;;21.80;15.90;;;;;;;9.25;52.90;101722.92;105750;1281;23054;-88
2022/03/15 09:46:16;;;;;;;20.40;15.80;;;;;;;9.21;53.07;101724.77;105845;1281;25472;-90
2022/03/15 09:49:06;;;;;;;17.70;14.30;;;;;;;9.33;53.24;101731.13;105637;1281;25320;-91
2022/03/15 09:51:35;;;;;;;22.50;16.30;;;;;;;9.36;53.27;101725.55;106126;1281;25553;-88
2022/03/15 09:54:04;;;;;;;17.60;14.30;;;;;;;9.34;53.55;101725.52;107022;1281;22611;-90
2022/03/15 09:56:34;;;;;;;20.00;15.40;;;;;;;9.29;53.74;101721.74;106307;1281;22720;-88
2022/03/15 09:59:16;;;;;;;26.70;17.80;;;;;;;9.38;53.73;101717.67;107479;1281;22574;-88
2022/03/15 10:01:45;;;;;;;26.50;19.10;;;;;;;9.46;53.41;101726.42;108870;1281;22660;-84
2022/03/15 10:04:12;;;;;;;24.20;17.60;;;;;;;9.45;53.29;101732.92;107985;1281;22703;-88
2022/03/15 10:06:39;;;;;;;19.30;14.80;;;;;;;9.39;53.38;101732.65;108640;1281;22565;-82
2022/03/15 10:09:07;;;;;;;22.00;14.70;;;;;;;9.32;53.43;101736.73;108882;1281;22522;-89
2022/03/15 10:11:36;;;;;;;18.50;16.20;;;;;;;9.20;53.72;101741.45;107338;1281;22541;-89
2022/03/15 10:14:04;;;;;;;24.70;17.20;;;;;;;9.17;54.11;101736.46;106792;1281;22549;-88
2022/03/15 10:16:34;;;;;;;20.60;15.30;;;;;;;9.14;54.23;101733.77;106869;1281;23113;-89
2022/03/15 10:19:01;;;;;;;23.00;17.40;;;;;;;9.01;54.54;101737.92;106978;1281;22516;-90
2022/03/15 10:21:47;;;;;;;19.10;15.50;;;;;;;8.96;54.79;101737.83;106890;1282;22738;-86
2022/03/15 10:24:20;;;;;;;23.10;17.90;;;;;;;8.93;55.09;101736.55;106907;1281;22519;-88
2022/03/15 10:26:49;;;;;;;18.40;14.80;;;;;;;9.01;55.25;101735.66;107085;1281;22782;-90
2022/03/15 10:29:17;;;;;;;27.30;18.30;;;;;;;9.09;55.44;101731.94;107656;1281;24137;-89
2022/03/15 10:31:49;;;;;;;20.90;16.20;;;;;;;9.17;55.32;101728.21;108421;1280;22552;-86
2022/03/15 10:34:16;;;;;;;18.00;15.00;;;;;;;9.25;55.39;101725.52;108643;1281;22490;-88
2022/03/15 10:36:48;;;;;;;20.00;15.70;;;;;;;9.30;55.25;101721.40;108478;1281;22614;-87
2022/03/15 10:39:19;;;;;;;21.10;15.20;;;;;;;9.39;55.26;101718.23;108444;1281;22649;-88
2022/03/15 10:42:08;;;;;;;20.20;16.50;;;;;;;9.51;55.20;101715.08;107047;1281;23924;-89
2022/03/15 10:44:39;;;;;;;22.30;17.00;;;;;;;9.62;54.98;101715.09;106005;1282;22563;-89
2022/03/15 10:47:10;;;;;;;18.90;15.70;;;;;;;9.67;54.92;101699.50;105857;1282;22757;-90
2022/03/15 10:49:48;;;;;;;21.30;17.50;;;;;;;9.85;54.80;101699.77;105800;1282;22582;-90
2022/03/15 10:52:34;;;;;;;22.00;17.80;;;;;;;9.96;54.47;101691.14;105743;1281;25372;-90
2022/03/15 10:55:12;;;;;;;;;;;;;;;9.96;54.37;101693.60;105707;1282;24250;-89
2022/03/15 10:57:51;;;;;;;25.20;18.10;;;;;;;10.10;54.47;101687.09;106025;1281;23940;-90
2022/03/15 11:00:22;;;;;;;21.30;17.40;;;;;;;10.57;54.11;101688.59;106243;1283;22665;-89
2022/03/15 11:02:51;;;;;;;20.90;17.00;;;;;;;10.86;53.03;101680.81;106801;1281;22670;-87
2022/03/15 11:05:47;;;;;;;20.00;16.70;;;;;;;10.78;52.63;101686.73;107501;1281;22584;-88
2022/03/15 11:08:17;;;;;;;22.20;17.60;;;;;;;10.68;52.83;101677.80;105820;1282;22730;-89
2022/03/15 11:10:50;;;;;;;20.80;16.40;;;;;;;10.80;52.93;101670.89;106151;1281;23630;-88
2022/03/15 11:13:18;;;;;;;21.00;17.70;;;;;;;11.05;52.73;101671.14;106048;1282;22712;-87
2022/03/15 11:15:48;;;;;;;21.40;17.70;;;;;;;11.20;52.10;101668.80;106982;1281;22620;-89
2022/03/15 11:18:19;;;;;;;16.10;13.50;;;;;;;11.28;52.13;101669.57;107052;1281;22608;-90